createdAt,value
2022-08-26T00:01:51.676Z,99.90
2022-08-26T00:04:17.803Z,99.90
2022-08-26T00:06:46.252Z,99.90
2022-08-26T00:09:12.450Z,99.90
2022-08-26T00:11:38.399Z,99.90
2022-08-26T00:14:04.397Z,99.90
2022-08-26T00:16:31.081Z,99.90
2022-08-26T00:18:57.042Z,99.90
2022-08-26T00:21:23.094Z,99.90
2022-08-26T00:23:49.381Z,99.90
2022-08-26T00:26:16.273Z,99.90
2022-08-26T00:28:42.324Z,99.90
2022-08-26T00:31:11.025Z,99.90
2022-08-26T00:33:37.270Z,99.90
2022-08-26T00:36:03.274Z,99.90
2022-08-26T00:38:30.299Z,99.90
2022-08-26T00:40:56.654Z,99.90
2022-08-26T00:43:22.649Z,99.90
2022-08-26T00:45:49.419Z,99.90
2022-08-26T00:48:15.382Z,99.90
2022-08-26T00:50:41.845Z,99.90
2022-08-26T00:53:07.979Z,99.90
2022-08-26T00:55:38.133Z,99.90
2022-08-26T00:58:04.405Z,99.90
2022-08-26T01:00:30.337Z,99.90
2022-08-26T01:02:57.854Z,99.90
2022-08-26T01:05:23.834Z,99.90
2022-08-26T01:07:49.888Z,99.90
2022-08-26T01:10:16.609Z,99.90
2022-08-26T01:12:42.687Z,99.90
2022-08-26T01:15:08.686Z,99.90
2022-08-26T01:17:36.042Z,99.90
2022-08-26T01:20:02.060Z,99.90
2022-08-26T01:22:29.009Z,99.90
2022-08-26T01:24:54.967Z,99.90
2022-08-26T01:27:21.884Z,99.90
2022-08-26T01:29:49.303Z,99.90
2022-08-26T01:32:15.243Z,99.90
2022-08-26T01:34:41.238Z,99.90
2022-08-26T01:37:07.635Z,99.90
2022-08-26T01:39:33.713Z,99.90
2022-08-26T01:42:02.950Z,99.90
2022-08-26T01:44:29.283Z,99.90
2022-08-26T01:46:55.885Z,99.90
2022-08-26T01:49:21.874Z,99.90
2022-08-26T01:51:49.176Z,99.90
2022-08-26T01:54:15.250Z,99.90
2022-08-26T01:56:41.765Z,99.90
2022-08-26T01:59:07.827Z,99.90
2022-08-26T02:01:35.415Z,99.90
2022-08-26T02:04:01.446Z,99.90
2022-08-26T02:06:27.426Z,99.90
2022-08-26T02:08:53.373Z,99.90
2022-08-26T02:11:19.383Z,99.90
2022-08-26T02:13:45.354Z,99.90
2022-08-26T02:16:11.374Z,99.90
2022-08-26T02:18:37.430Z,99.90
2022-08-26T02:21:03.392Z,99.90
2022-08-26T02:23:32.989Z,99.90
2022-08-26T02:26:00.265Z,99.90
2022-08-26T02:28:28.044Z,99.90
2022-08-26T02:30:55.638Z,99.90
2022-08-26T02:33:21.817Z,99.90
2022-08-26T02:35:48.926Z,99.90
2022-08-26T02:38:14.867Z,99.90
2022-08-26T02:40:41.082Z,99.90
2022-08-26T02:43:08.579Z,99.90
2022-08-26T02:45:35.520Z,99.90
2022-08-26T02:48:01.577Z,99.90
2022-08-26T02:50:27.661Z,99.90
2022-08-26T02:52:53.595Z,99.90
2022-08-26T02:55:19.581Z,99.90
2022-08-26T02:57:45.526Z,99.90
2022-08-26T03:00:12.204Z,99.90
2022-08-26T03:02:38.190Z,99.90
2022-08-26T03:05:04.204Z,99.90
2022-08-26T03:07:30.173Z,99.90
2022-08-26T03:09:57.064Z,99.90
2022-08-26T03:12:23.696Z,99.90
2022-08-26T03:14:51.607Z,99.90
2022-08-26T03:17:19.059Z,99.90
2022-08-26T03:19:45.045Z,99.90
2022-08-26T03:22:11.367Z,99.90
2022-08-26T03:24:40.874Z,99.90
2022-08-26T03:27:11.844Z,99.90
2022-08-26T03:29:38.149Z,99.90
2022-08-26T03:32:05.367Z,99.90
2022-08-26T03:34:32.930Z,99.90
2022-08-26T03:39:41.060Z,99.90
2022-08-26T05:47:17.848Z,99.90
2022-08-26T05:49:51.552Z,99.90
2022-08-26T05:52:18.806Z,99.90
2022-08-26T05:54:44.844Z,99.90
2022-08-26T05:57:13.672Z,99.90
2022-08-26T05:59:40.581Z,99.90
2022-08-26T06:02:07.948Z,99.90
2022-08-26T06:04:33.905Z,99.90
2022-08-26T06:06:59.923Z,99.90
2022-08-26T06:09:26.814Z,99.90
2022-08-26T06:11:52.802Z,99.90
2022-08-26T06:14:19.668Z,99.90
2022-08-26T06:16:46.358Z,99.90
2022-08-26T06:19:12.288Z,99.90
2022-08-26T06:21:39.240Z,99.90
2022-08-26T06:24:05.273Z,99.90
2022-08-26T06:26:31.218Z,99.90
2022-08-26T06:28:58.163Z,99.90
2022-08-26T06:31:24.254Z,99.90
2022-08-26T06:33:50.319Z,99.90
2022-08-26T06:36:17.201Z,99.90
2022-08-26T06:38:44.659Z,99.90
2022-08-26T06:41:10.594Z,99.90
2022-08-26T06:43:37.541Z,99.90
2022-08-26T06:46:04.759Z,99.90
2022-08-26T06:48:30.957Z,99.90
2022-08-26T06:50:57.894Z,99.90
2022-08-26T06:53:24.321Z,99.90
2022-08-26T06:55:51.879Z,99.90
2022-08-26T06:58:18.009Z,99.90
2022-08-26T07:00:47.393Z,99.90
2022-08-26T07:03:13.707Z,99.90
2022-08-26T07:05:39.763Z,99.90
2022-08-26T07:08:05.706Z,99.90
2022-08-26T07:10:32.420Z,99.90
2022-08-26T07:12:58.448Z,99.90
2022-08-26T07:15:31.077Z,99.90
2022-08-26T07:17:58.348Z,99.90
2022-08-26T07:20:24.419Z,99.90
2022-08-26T07:22:50.947Z,99.90
2022-08-26T07:25:16.891Z,99.90
2022-08-26T07:27:46.080Z,99.90
2022-08-26T07:30:19.874Z,99.90
2022-08-26T07:32:45.889Z,99.90
2022-08-26T07:35:12.611Z,99.90
2022-08-26T07:37:39.206Z,99.90
2022-08-26T07:40:05.423Z,99.90
2022-08-26T07:42:32.154Z,99.90
2022-08-26T07:44:58.095Z,99.90
2022-08-26T07:47:25.595Z,99.90
2022-08-26T07:49:52.670Z,99.90
2022-08-26T07:52:21.640Z,99.90
2022-08-26T07:54:50.074Z,99.90
2022-08-26T07:57:16.048Z,99.90
2022-08-26T07:59:45.066Z,99.90
2022-08-26T08:02:11.924Z,99.90
2022-08-26T08:04:37.921Z,99.90
2022-08-26T08:07:04.469Z,99.90
2022-08-26T08:09:33.558Z,99.90
2022-08-26T08:11:59.515Z,99.90
2022-08-26T08:14:26.633Z,99.90
2022-08-26T08:16:54.702Z,99.90
2022-08-26T08:19:21.855Z,99.90
2022-08-26T08:21:47.860Z,99.90
2022-08-26T08:24:13.902Z,99.90
2022-08-26T08:26:39.865Z,99.90
2022-08-26T08:29:05.842Z,99.90
2022-08-26T08:31:55.825Z,99.90
2022-08-26T08:34:18.175Z,99.90
2022-08-26T08:36:44.341Z,99.90
2022-08-26T08:39:10.343Z,99.90
2022-08-26T08:41:36.293Z,99.90
2022-08-26T08:44:02.303Z,99.90
2022-08-26T08:46:28.301Z,99.90
2022-08-26T08:48:55.074Z,99.90
2022-08-26T08:51:22.487Z,99.90
2022-08-26T08:53:48.436Z,99.90
2022-08-26T08:56:15.104Z,99.90
2022-08-26T08:58:41.153Z,99.90
2022-08-26T09:01:07.146Z,99.90
2022-08-26T09:03:36.107Z,99.90
2022-08-26T09:06:03.834Z,99.90
2022-08-26T09:08:30.172Z,99.90
2022-08-26T09:10:56.466Z,99.90
2022-08-26T09:13:27.110Z,99.90
2022-08-26T09:15:53.714Z,99.90
2022-08-26T09:18:20.385Z,99.90
2022-08-26T11:40:19.498Z,95.20
2022-08-26T11:42:45.534Z,93.70
2022-08-26T11:45:12.340Z,93.60
2022-08-26T11:47:39.033Z,93.60
2022-08-26T11:50:05.258Z,93.50
2022-08-26T11:52:32.456Z,93.00
2022-08-26T11:54:58.592Z,91.40
2022-08-26T11:57:25.156Z,91.40
2022-08-26T11:59:51.192Z,90.70
2022-08-26T12:02:17.952Z,90.70
2022-08-26T12:04:44.140Z,90.20
2022-08-26T12:07:10.158Z,91.80
2022-08-26T12:09:36.159Z,91.50
2022-08-26T12:12:02.844Z,92.50
2022-08-26T12:14:29.863Z,91.00
2022-08-26T12:16:57.409Z,89.50
2022-08-26T12:19:23.386Z,90.30
2022-08-26T12:21:51.211Z,88.90
2022-08-26T12:24:18.447Z,89.90
2022-08-26T12:26:45.929Z,90.50
2022-08-26T12:29:19.994Z,91.30
2022-08-26T12:31:47.435Z,91.20
2022-08-26T12:34:17.608Z,90.70
2022-08-26T12:36:44.308Z,91.40
2022-08-26T12:39:10.566Z,90.30
2022-08-26T12:41:36.576Z,89.60
2022-08-26T12:44:03.354Z,90.70
2022-08-26T12:46:29.476Z,90.90
2022-08-26T12:48:55.466Z,91.30
2022-08-26T12:51:21.500Z,90.00
2022-08-26T12:53:48.788Z,90.00
2022-08-26T12:56:14.819Z,91.10
2022-08-26T12:58:40.866Z,89.90
2022-08-26T13:01:07.070Z,90.60
2022-08-26T13:03:33.922Z,89.50
2022-08-26T13:05:59.947Z,90.70
2022-08-26T13:08:25.998Z,90.90
2022-08-26T13:10:52.012Z,90.50
2022-08-26T13:13:18.006Z,90.50
2022-08-26T13:15:44.103Z,89.90
2022-08-26T13:18:10.878Z,90.30
2022-08-26T13:20:36.866Z,89.10
2022-08-26T13:23:02.894Z,88.30
2022-08-26T13:25:29.646Z,84.50
2022-08-26T13:27:55.633Z,86.70
2022-08-26T13:30:21.702Z,87.20
2022-08-26T13:32:48.477Z,86.90
2022-08-26T13:35:14.900Z,86.50
2022-08-26T13:37:41.818Z,84.50
2022-08-26T13:40:08.080Z,87.30
2022-08-26T13:42:34.406Z,85.80
2022-08-26T13:45:00.652Z,86.60
2022-08-26T13:47:27.757Z,86.00
2022-08-26T13:49:53.814Z,86.60
2022-08-26T13:52:30.383Z,88.80
2022-08-26T13:54:57.818Z,86.60
2022-08-26T13:57:23.861Z,85.90
2022-08-26T13:59:50.994Z,88.90
2022-08-26T14:02:17.007Z,85.00
2022-08-26T14:04:43.863Z,86.30
2022-08-26T14:07:09.851Z,86.70
2022-08-26T14:09:38.412Z,85.70
2022-08-26T14:12:04.718Z,86.20
2022-08-26T14:14:30.726Z,89.40
2022-08-26T14:17:00.150Z,86.20
2022-08-26T14:19:26.860Z,87.90
2022-08-26T14:21:53.180Z,89.00
2022-08-26T14:24:19.562Z,89.90
2022-08-26T14:26:45.897Z,89.60
2022-08-26T14:29:16.138Z,91.40
2022-08-26T14:31:43.268Z,89.00
2022-08-26T14:34:10.822Z,88.60
2022-08-26T14:36:37.017Z,87.60
2022-08-26T15:03:55.551Z,89.60
2022-08-26T15:06:21.576Z,87.90
2022-08-26T15:08:48.334Z,87.30
2022-08-26T15:11:14.379Z,87.60
2022-08-26T15:13:40.423Z,88.30
2022-08-26T15:16:06.456Z,90.30
2022-08-26T15:18:33.444Z,90.00
2022-08-26T15:20:59.443Z,90.30
2022-08-26T15:23:25.452Z,89.70
2022-08-26T15:25:53.999Z,88.70
2022-08-26T15:28:20.012Z,91.10
2022-08-26T15:30:49.015Z,89.50
2022-08-26T15:33:15.609Z,89.70
2022-08-26T15:35:43.120Z,89.90
2022-08-26T15:38:09.393Z,90.00
2022-08-26T15:40:35.654Z,88.60
2022-08-26T15:43:18.583Z,90.40
2022-08-26T15:45:48.409Z,91.20
2022-08-26T15:48:14.688Z,87.90
2022-08-26T15:50:42.365Z,87.20
2022-08-26T15:53:08.530Z,87.40
2022-08-26T15:55:34.524Z,87.20
2022-08-26T15:58:00.758Z,90.10
2022-08-26T16:00:27.691Z,90.00
2022-08-26T16:02:54.480Z,88.50
2022-08-26T16:05:20.677Z,88.00
2022-08-26T16:07:46.862Z,90.30
2022-08-26T16:10:12.843Z,90.50
2022-08-26T16:12:39.583Z,90.10
2022-08-26T16:15:05.659Z,90.30
2022-08-26T16:17:31.656Z,89.10
2022-08-26T16:19:57.643Z,89.80
2022-08-26T16:22:23.749Z,88.60
2022-08-26T16:24:49.813Z,88.60
2022-08-26T16:27:16.547Z,88.40
2022-08-26T16:29:42.638Z,88.90
2022-08-26T16:32:08.639Z,90.20
2022-08-26T16:34:34.577Z,90.70
2022-08-26T16:37:00.654Z,90.00
2022-08-26T16:39:26.869Z,90.40
2022-08-26T16:41:52.869Z,89.20
2022-08-26T16:44:18.929Z,89.40
2022-08-26T16:46:44.985Z,90.40
2022-08-26T16:49:11.744Z,91.00
2022-08-26T16:51:38.433Z,91.30
2022-08-26T16:54:04.591Z,91.30
2022-08-26T16:56:33.416Z,92.40
2022-08-26T16:59:00.512Z,93.50
2022-08-26T17:01:27.345Z,93.30
2022-08-26T17:03:53.394Z,93.60
2022-08-26T17:06:19.429Z,93.30
2022-08-26T17:08:46.181Z,93.40
2022-08-26T17:11:12.157Z,93.70
2022-08-26T17:13:38.194Z,94.00
2022-08-26T17:16:04.406Z,95.20
2022-08-26T17:18:30.502Z,95.20
2022-08-26T17:20:57.444Z,95.30
2022-08-26T17:23:23.911Z,95.30
2022-08-26T17:25:49.953Z,94.90
2022-08-26T17:28:15.954Z,95.70
2022-08-26T17:30:42.669Z,95.20
2022-08-26T17:33:10.823Z,95.70
2022-08-26T17:35:38.077Z,95.90
2022-08-26T17:38:05.089Z,95.80
2022-08-26T17:40:31.474Z,95.70
2022-08-26T17:42:57.776Z,97.00
2022-08-26T17:45:24.055Z,97.00
2022-08-26T17:47:51.634Z,96.90
2022-08-26T17:50:17.890Z,97.00
2022-08-26T17:52:44.105Z,96.90
2022-08-26T17:55:10.341Z,97.00
2022-08-26T17:57:40.515Z,97.40
2022-08-26T18:00:07.112Z,97.40
2022-08-26T20:12:10.229Z,99.90
2022-08-26T20:14:36.988Z,99.90
2022-08-26T20:17:03.029Z,99.90
2022-08-26T20:19:29.252Z,99.90
2022-08-26T20:21:55.248Z,99.90
2022-08-26T20:24:21.915Z,99.90
2022-08-26T20:26:48.040Z,99.90
2022-08-26T20:29:14.050Z,99.90
2022-08-26T20:31:40.872Z,99.90
2022-08-26T20:34:07.022Z,99.90
2022-08-26T20:36:33.021Z,99.90
2022-08-26T20:38:59.774Z,99.90
2022-08-26T20:41:25.925Z,99.90
2022-08-26T20:43:51.926Z,99.90
2022-08-26T20:46:21.907Z,99.90
2022-08-26T20:48:50.293Z,99.90
2022-08-26T20:51:16.291Z,99.90
2022-08-26T20:53:42.418Z,99.90
2022-08-26T20:56:09.341Z,99.90
2022-08-26T20:58:35.397Z,99.90
2022-08-26T21:01:06.734Z,99.90
2022-08-26T21:03:34.173Z,99.90
2022-08-26T21:06:00.184Z,99.90
2022-08-26T21:08:26.226Z,99.90
2022-08-26T21:10:52.610Z,99.90
2022-08-26T21:13:18.735Z,99.90
2022-08-26T21:15:44.738Z,99.90
2022-08-26T21:18:10.864Z,99.90
2022-08-26T21:20:37.683Z,99.90
2022-08-26T21:23:03.706Z,99.90
2022-08-26T21:25:29.755Z,99.90
2022-08-26T21:27:55.793Z,99.90
2022-08-26T21:30:21.805Z,99.90
2022-08-26T21:32:48.717Z,99.90
2022-08-26T21:35:14.726Z,99.90
2022-08-26T21:37:40.699Z,99.90
2022-08-26T21:40:07.677Z,99.90
2022-08-26T21:42:33.754Z,99.90
2022-08-26T21:44:59.757Z,99.90
2022-08-26T21:47:25.904Z,99.90
2022-08-26T21:49:51.941Z,99.90
2022-08-26T21:52:17.947Z,99.90
2022-08-26T21:54:49.607Z,99.90
2022-08-26T21:57:15.932Z,99.90
2022-08-26T21:59:41.919Z,99.90
2022-08-26T22:02:08.008Z,99.90
2022-08-26T22:04:34.806Z,99.90
2022-08-26T22:07:00.845Z,99.90
2022-08-26T22:09:26.895Z,99.90
2022-08-26T22:11:52.923Z,99.90
2022-08-26T22:14:19.622Z,99.90
2022-08-26T22:16:50.685Z,99.90
2022-08-26T22:19:17.526Z,99.90
2022-08-26T22:21:43.537Z,99.90
2022-08-26T22:24:10.540Z,99.90
2022-08-26T22:26:36.573Z,99.90
2022-08-26T22:29:02.563Z,99.90
2022-08-26T22:31:29.445Z,99.90
2022-08-26T22:34:04.200Z,99.90
2022-08-26T22:36:30.264Z,99.90
2022-08-26T22:38:56.255Z,99.90
2022-08-26T22:41:23.015Z,99.90
2022-08-26T22:43:49.115Z,99.90
2022-08-26T22:46:15.156Z,99.90
2022-08-26T22:48:41.599Z,99.90
2022-08-26T22:51:07.948Z,99.90
2022-08-26T22:53:35.974Z,99.90
2022-08-26T22:56:08.789Z,99.90
2022-08-26T22:58:35.173Z,99.90
2022-08-26T23:03:41.916Z,99.90
